LIRS/GRS METAR and TAF weather

Enter ICAO airport designator
Station Type Date Time Source
LIRS METAR 2018/12/15 21:55 UTC NOAA

LIRS 152155Z 02006KT CAVOK 03/M01 Q1020


Station Type Date Time Source
LIRS Decoded METAR 2018/12/15 21:55 UTC NOAA

Grosseto, Italy (LIRS) 42-45N 011-04E 7M
Dec 15, 2018 - 04:55 PM EST / 2018.12.15 2155 UTC
Wind: from the NNE (020 degrees) at 7 MPH (6 KT):0
Visibility: greater than 7 mile(s):0
Temperature: 37 F (3 C)
Dew Point: 30 F (-1 C)
Relative Humidity: 74%
Pressure (altimeter): 30.12 in. Hg (1020 hPa)
ob: LIRS 152155Z 02006KT CAVOK 03/M01 Q1020
cycle: 22

Station Type Date Time Source
LIRS TAF 2018/06/29 09:24 UTC NOAA

TAF TAF LIRS 290800Z 2909/2921 VRB03KT 9999 FEW030
BECMG 2911/2913 24015KT


Example: see airport list